Time;durP1;ratioP1;P1;durP2;ratioP2;P2;SDS_P1;SDS_P2;PMS_P1;PMS_P2;Temp;Humidity;BMP_temperature;BMP_pressure;BME280_temperature;BME280_humidity;BME280_pressure;Samples;Min_cycle;Max_cycle;Signal;HPM_P1;HPM_P2
2021/11/15 00:00:10;;;;;;;;;;;4.90;99.90;;;;;;5008969;28;19940;-77
2021/11/15 00:02:37;;;;;;;;;;;4.90;99.90;;;;;;5014716;28;20326;-77
2021/11/15 00:05:04;;;;;;;;;;;4.90;99.90;;;;;;5010062;28;19929;-76
2021/11/15 00:07:30;;;;;;;;;;;5.10;99.90;;;;;;5012598;28;19926;-77
2021/11/15 00:09:57;;;;;;;;;;;5.10;99.90;;;;;;5014639;28;20012;-77
2021/11/15 00:12:25;;;;;;;;;;;5.20;99.90;;;;;;5013839;28;19929;-77
2021/11/15 00:14:52;;;;;;;;;;;5.20;99.90;;;;;;5011360;28;19929;-77
2021/11/15 00:17:18;;;;;;;;;;;5.00;99.90;;;;;;5007348;28;20012;-77
2021/11/15 00:19:45;;;;;;;;;;;4.90;99.90;;;;;;5010925;28;19926;-77
2021/11/15 00:22:12;;;;;;;;;;;4.90;99.90;;;;;;5010325;28;20029;-76
2021/11/15 00:24:38;;;;;;;;;;;4.90;99.90;;;;;;5006828;28;19932;-76
2021/11/15 00:27:05;;;;;;;;;;;4.90;99.90;;;;;;5010613;28;19925;-75
2021/11/15 00:29:33;;;;;;;;;;;4.90;99.90;;;;;;5008646;28;19933;-76
2021/11/15 00:32:00;;;;;;;;;;;4.90;99.90;;;;;;5010075;28;19926;-77
2021/11/15 00:34:29;;;;;;;;;;;4.80;99.90;;;;;;5007883;28;19926;-76
2021/11/15 00:36:56;;;;;;;;;;;4.80;99.90;;;;;;5010231;28;20020;-76
2021/11/15 00:39:23;;;;;;;;;;;5.00;99.90;;;;;;5008829;28;20307;-76
2021/11/15 00:41:49;;;;;;;;;;;5.10;99.90;;;;;;5007498;28;19933;-76
2021/11/15 00:44:16;;;;;;;;;;;5.10;99.90;;;;;;5007189;28;20440;-76
2021/11/15 00:46:44;;;;;;;;;;;5.20;99.90;;;;;;5009839;28;19926;-76
2021/11/15 00:49:10;;;;;;;;;;;5.20;99.90;;;;;;5007169;28;19948;-77
2021/11/15 00:51:37;;;;;;;;;;;5.40;99.90;;;;;;5012916;28;19926;-77
2021/11/15 00:54:04;;;;;;;;;;;5.30;99.90;;;;;;5009791;28;19932;-78
2021/11/15 00:56:30;;;;;;;;;;;5.40;99.90;;;;;;5005214;28;19937;-77
2021/11/15 00:58:57;;;;;;;;;;;5.40;99.90;;;;;;5012298;28;19932;-76
2021/11/15 01:01:24;;;;;;;;;;;5.50;99.90;;;;;;5005863;28;20011;-75
2021/11/15 01:03:52;;;;;;;;;;;5.60;99.90;;;;;;5008614;28;19941;-76
2021/11/15 01:06:19;;;;;;;;;;;5.50;99.90;;;;;;5004949;28;19926;-77
2021/11/15 01:08:46;;;;;;;;;;;5.40;99.90;;;;;;5008440;28;19937;-77
2021/11/15 01:11:12;;;;;;;;;;;5.40;99.90;;;;;;5006859;28;19933;-77
2021/11/15 01:13:39;;;;;;;;;;;5.40;99.90;;;;;;5004681;28;19934;-78
2021/11/15 01:16:07;;;;;;;;;;;5.40;99.90;;;;;;5010257;28;19932;-77
2021/11/15 01:18:35;;;;;;;;;;;5.30;99.90;;;;;;5011571;28;19936;-78
2021/11/15 01:21:03;;;;;;;;;;;5.30;99.90;;;;;;5010966;28;19933;-77
2021/11/15 01:23:30;;;;;;;;;;;5.30;99.90;;;;;;5010867;28;19925;-77
2021/11/15 01:25:56;;;;;;;;;;;5.30;99.90;;;;;;5012091;28;19926;-77
2021/11/15 01:28:23;;;;;;;;;;;5.30;99.90;;;;;;5007531;28;19926;-78
2021/11/15 01:30:49;;;;;;;;;;;5.40;99.90;;;;;;5007488;28;20318;-76
2021/11/15 01:33:16;;;;;;;;;;;5.40;99.90;;;;;;5011054;28;19925;-76
2021/11/15 01:35:43;;;;;;;;;;;5.40;99.90;;;;;;5011161;28;19926;-76
2021/11/15 01:38:11;;;;;;;;;;;5.50;99.90;;;;;;5008070;28;19933;-76
2021/11/15 01:40:37;;;;;;;;;;;5.40;99.90;;;;;;5013946;28;19925;-76
2021/11/15 01:43:05;;;;;;;;;;;5.50;99.90;;;;;;5006097;28;19932;-76
2021/11/15 01:45:33;;;;;;;;;;;5.50;99.90;;;;;;5008771;28;19925;-76
2021/11/15 01:48:01;;;;;;;;;;;5.50;99.90;;;;;;5007549;28;20048;-77
2021/11/15 01:50:28;;;;;;;;;;;5.60;99.90;;;;;;5004231;28;19933;-75
2021/11/15 01:52:56;;;;;;;;;;;5.60;99.90;;;;;;5009639;28;19926;-76
2021/11/15 01:55:24;;;;;;;;;;;5.50;99.90;;;;;;5009220;28;19925;-76
2021/11/15 01:57:51;;;;;;;;;;;5.50;99.90;;;;;;5012733;28;20310;-76
2021/11/15 02:00:20;;;;;;;;;;;5.60;99.90;;;;;;5009725;28;19925;-77
2021/11/15 02:02:47;;;;;;;;;;;5.50;99.90;;;;;;5015186;28;19929;-77
2021/11/15 02:05:13;;;;;;;;;;;5.50;99.90;;;;;;5019326;28;19925;-76
2021/11/15 02:07:40;;;;;;;;;;;5.50;99.90;;;;;;5008511;28;19932;-76
2021/11/15 02:10:08;;;;;;;;;;;5.50;99.90;;;;;;5018418;28;20011;-77
2021/11/15 02:12:36;;;;;;;;;;;5.50;99.90;;;;;;5011105;28;19932;-76
2021/11/15 02:15:03;;;;;;;;;;;5.50;99.90;;;;;;5010397;28;19925;-77
2021/11/15 02:17:31;;;;;;;;;;;5.40;99.90;;;;;;5014877;28;19925;-76
2021/11/15 02:20:01;;;;;;;;;;;5.50;99.90;;;;;;5010306;28;19936;-77
2021/11/15 02:22:29;;;;;;;;;;;5.40;99.90;;;;;;5024124;28;19925;-76
2021/11/15 02:25:00;;;;;;;;;;;5.50;99.90;;;;;;5013640;28;19932;-77
2021/11/15 02:27:26;;;;;;;;;;;5.40;99.90;;;;;;5009935;28;19925;-77
2021/11/15 02:29:53;;;;;;;;;;;5.50;99.90;;;;;;5012580;28;19925;-76
2021/11/15 02:32:20;;;;;;;;;;;5.50;99.90;;;;;;5016744;28;19929;-76
2021/11/15 02:34:46;;;;;;;;;;;5.60;99.90;;;;;;5011255;28;19972;-77
2021/11/15 02:37:13;;;;;;;;;;;5.60;99.90;;;;;;5003843;28;19925;-76
2021/11/15 02:39:41;;;;;;;;;;;5.60;99.90;;;;;;5007850;28;19925;-76
2021/11/15 02:42:10;;;;;;;;;;;5.70;99.90;;;;;;5007986;28;20020;-76
2021/11/15 02:44:37;;;;;;;;;;;5.80;99.90;;;;;;5013481;28;20321;-77
2021/11/15 02:47:04;;;;;;;;;;;5.80;99.90;;;;;;5012759;28;19947;-77
2021/11/15 02:49:31;;;;;;;;;;;5.90;99.90;;;;;;5014594;28;19925;-77
2021/11/15 02:51:58;;;;;;;;;;;5.90;99.90;;;;;;5008716;28;19932;-76
2021/11/15 02:54:25;;;;;;;;;;;5.90;99.90;;;;;;5013217;28;19935;-77
2021/11/15 02:56:53;;;;;;;;;;;6.00;99.90;;;;;;5013876;28;20632;-76
2021/11/15 02:59:20;;;;;;;;;;;6.00;99.90;;;;;;5008063;28;19949;-77
2021/11/15 03:01:47;;;;;;;;;;;6.10;99.90;;;;;;5012190;28;19926;-76
2021/11/15 03:04:14;;;;;;;;;;;6.10;99.90;;;;;;5006800;28;19957;-76
2021/11/15 03:06:40;;;;;;;;;;;6.10;99.90;;;;;;5010941;28;19926;-77
2021/11/15 03:09:07;;;;;;;;;;;6.10;99.90;;;;;;5008894;28;19932;-76
2021/11/15 03:11:34;;;;;;;;;;;6.20;99.90;;;;;;5009836;28;20017;-77
2021/11/15 03:14:02;;;;;;;;;;;6.20;99.90;;;;;;5013782;28;19926;-76
2021/11/15 03:16:29;;;;;;;;;;;6.30;99.90;;;;;;5005998;28;19926;-77
2021/11/15 03:18:55;;;;;;;;;;;6.30;99.90;;;;;;5008928;28;19930;-76
2021/11/15 03:21:23;;;;;;;;;;;6.30;99.90;;;;;;5012160;28;19932;-76
2021/11/15 03:23:51;;;;;;;;;;;6.40;99.90;;;;;;5007908;28;20016;-76
2021/11/15 03:26:18;;;;;;;;;;;6.40;99.90;;;;;;5015408;28;19926;-78
2021/11/15 03:28:46;;;;;;;;;;;6.50;99.90;;;;;;5016653;28;20502;-77
2021/11/15 03:31:18;;;;;;;;;;;6.50;99.90;;;;;;5006698;28;19934;-76
2021/11/15 03:33:46;;;;;;;;;;;6.60;99.90;;;;;;5005554;28;20269;-76
2021/11/15 03:36:12;;;;;;;;;;;6.60;99.90;;;;;;5003981;28;19926;-76
2021/11/15 03:38:40;;;;;;;;;;;6.60;99.90;;;;;;5015712;28;19925;-77
2021/11/15 03:41:07;;;;;;;;;;;6.70;99.90;;;;;;5015341;28;19925;-77
2021/11/15 03:43:33;;;;;;;;;;;6.70;99.90;;;;;;5012813;28;19926;-77
2021/11/15 03:46:00;;;;;;;;;;;6.70;99.90;;;;;;5013088;28;20303;-77
2021/11/15 03:48:28;;;;;;;;;;;6.80;99.90;;;;;;5006527;28;20379;-77
2021/11/15 03:50:58;;;;;;;;;;;6.70;99.90;;;;;;5005898;28;19925;-77
2021/11/15 03:53:26;;;;;;;;;;;6.70;99.90;;;;;;5015362;28;20012;-77
2021/11/15 03:55:53;;;;;;;;;;;6.80;99.90;;;;;;5016910;28;20415;-77
2021/11/15 03:58:20;;;;;;;;;;;6.80;99.90;;;;;;5011163;28;19926;-76
2021/11/15 04:00:47;;;;;;;;;;;6.80;99.90;;;;;;5007803;28;19926;-76
2021/11/15 04:03:20;;;;;;;;;;;6.80;99.90;;;;;;5010255;28;19925;-76
2021/11/15 04:05:55;;;;;;;;;;;6.80;99.90;;;;;;5006651;28;20034;-76
2021/11/15 04:08:22;;;;;;;;;;;6.80;99.90;;;;;;5007355;28;19931;-76
2021/11/15 04:10:48;;;;;;;;;;;6.80;99.90;;;;;;5012684;28;19925;-75
2021/11/15 04:13:18;;;;;;;;;;;6.80;99.90;;;;;;5011625;28;20189;-76
2021/11/15 04:15:45;;;;;;;;;;;6.90;99.90;;;;;;5011654;28;19925;-76
2021/11/15 04:18:12;;;;;;;;;;;6.90;99.90;;;;;;5011403;28;19925;-76
2021/11/15 04:20:39;;;;;;;;;;;6.90;99.90;;;;;;5015008;28;19932;-76
2021/11/15 04:23:07;;;;;;;;;;;6.90;99.90;;;;;;5013153;28;19933;-76
2021/11/15 04:25:34;;;;;;;;;;;7.00;99.90;;;;;;5001639;28;19932;-75
2021/11/15 04:28:00;;;;;;;;;;;7.00;99.90;;;;;;5011188;28;19926;-76
2021/11/15 04:30:31;;;;;;;;;;;7.00;99.90;;;;;;5008480;28;20024;-76
2021/11/15 04:32:58;;;;;;;;;;;7.00;99.90;;;;;;5015804;28;20021;-75
2021/11/15 04:35:25;;;;;;;;;;;7.00;99.90;;;;;;5008194;28;20045;-77
2021/11/15 04:37:51;;;;;;;;;;;7.10;99.90;;;;;;5013189;28;20367;-77
2021/11/15 04:40:19;;;;;;;;;;;7.10;99.90;;;;;;5004652;28;19926;-76
2021/11/15 04:42:46;;;;;;;;;;;7.10;99.90;;;;;;5009041;28;19934;-76
2021/11/15 04:45:13;;;;;;;;;;;7.10;99.90;;;;;;5004150;28;19926;-77
2021/11/15 04:47:40;;;;;;;;;;;7.10;99.90;;;;;;5007708;28;19934;-75
2021/11/15 04:50:07;;;;;;;;;;;7.10;99.90;;;;;;5009789;28;19925;-76
2021/11/15 04:52:33;;;;;;;;;;;7.10;99.90;;;;;;5006259;28;19978;-75
2021/11/15 04:55:00;;;;;;;;;;;7.10;99.90;;;;;;5003543;28;19926;-77
2021/11/15 04:57:28;;;;;;;;;;;7.10;99.90;;;;;;5006251;28;19925;-76
2021/11/15 04:59:54;;;;;;;;;;;7.10;99.90;;;;;;5012965;28;19925;-76
2021/11/15 05:02:21;;;;;;;;;;;7.10;99.90;;;;;;5012498;28;19925;-77
2021/11/15 05:04:48;;;;;;;;;;;7.10;99.90;;;;;;5008655;28;19926;-76
2021/11/15 05:07:14;;;;;;;;;;;7.10;99.90;;;;;;5009914;28;19934;-80
2021/11/15 05:09:41;;;;;;;;;;;7.10;99.90;;;;;;5014882;28;19925;-77
2021/11/15 05:12:08;;;;;;;;;;;7.10;99.90;;;;;;5009291;28;19937;-76
2021/11/15 05:14:36;;;;;;;;;;;7.10;99.90;;;;;;5010859;28;20299;-77
2021/11/15 05:17:03;;;;;;;;;;;7.10;99.90;;;;;;5006159;28;19948;-77
2021/11/15 05:19:30;;;;;;;;;;;7.10;99.90;;;;;;5001691;28;20016;-77
2021/11/15 05:21:56;;;;;;;;;;;7.10;99.90;;;;;;5006617;28;19932;-77
2021/11/15 05:24:23;;;;;;;;;;;7.10;99.90;;;;;;5012586;28;20017;-78
2021/11/15 05:26:50;;;;;;;;;;;7.10;99.90;;;;;;5010454;28;20020;-77
2021/11/15 05:29:16;;;;;;;;;;;7.10;99.90;;;;;;5007536;28;19925;-77
2021/11/15 05:31:44;;;;;;;;;;;7.10;99.90;;;;;;5001849;28;19926;-77
2021/11/15 05:34:11;;;;;;;;;;;7.10;99.90;;;;;;5007732;28;19926;-77
2021/11/15 05:36:38;;;;;;;;;;;7.20;99.90;;;;;;5008730;28;19930;-76
2021/11/15 05:39:05;;;;;;;;;;;7.20;99.90;;;;;;5005176;28;19925;-77
2021/11/15 05:41:31;;;;;;;;;;;7.20;99.90;;;;;;5011364;28;20388;-77
2021/11/15 05:43:58;;;;;;;;;;;7.20;99.90;;;;;;5011941;28;19929;-77
2021/11/15 05:46:24;;;;;;;;;;;7.10;99.90;;;;;;5004992;28;19932;-77
2021/11/15 05:48:52;;;;;;;;;;;7.20;99.90;;;;;;5008170;28;20013;-77
2021/11/15 05:51:19;;;;;;;;;;;7.10;99.90;;;;;;5009802;28;19925;-77
2021/11/15 05:53:46;;;;;;;;;;;7.10;99.90;;;;;;5007045;28;19986;-77
2021/11/15 05:56:13;;;;;;;;;;;7.10;99.90;;;;;;5013865;28;19947;-77
2021/11/15 05:58:40;;;;;;;;;;;7.20;99.90;;;;;;5007241;28;19926;-77
2021/11/15 06:01:06;;;;;;;;;;;7.10;99.90;;;;;;5014502;28;19929;-77
2021/11/15 06:03:33;;;;;;;;;;;7.10;99.90;;;;;;5012674;28;19932;-76
2021/11/15 06:06:01;;;;;;;;;;;7.10;99.90;;;;;;5007635;28;19972;-76
2021/11/15 06:08:28;;;;;;;;;;;7.10;99.90;;;;;;5003802;28;20311;-76
2021/11/15 06:10:54;;;;;;;;;;;7.10;99.90;;;;;;5006226;28;19926;-75
2021/11/15 06:13:21;;;;;;;;;;;7.10;99.90;;;;;;5006405;28;20449;-76
2021/11/15 06:15:48;;;;;;;;;;;7.10;99.90;;;;;;5005712;28;20372;-77
2021/11/15 06:18:15;;;;;;;;;;;7.10;99.90;;;;;;5021334;28;19925;-76
2021/11/15 06:20:42;;;;;;;;;;;7.10;99.90;;;;;;5005857;28;20295;-78
2021/11/15 06:23:10;;;;;;;;;;;7.10;99.90;;;;;;5015924;28;20020;-75
2021/11/15 06:25:37;;;;;;;;;;;7.10;99.90;;;;;;5012804;28;19989;-79
2021/11/15 06:28:04;;;;;;;;;;;7.00;99.90;;;;;;5005904;28;20560;-76
2021/11/15 06:30:31;;;;;;;;;;;7.00;99.90;;;;;;5006724;28;19925;-75
2021/11/15 06:32:57;;;;;;;;;;;7.00;99.90;;;;;;5007283;28;19929;-76
2021/11/15 06:35:26;;;;;;;;;;;7.00;99.90;;;;;;5008188;28;19926;-75
2021/11/15 06:37:52;;;;;;;;;;;7.00;99.90;;;;;;5006011;28;19926;-75
2021/11/15 06:40:20;;;;;;;;;;;7.00;99.90;;;;;;5012221;28;19930;-76
2021/11/15 06:42:47;;;;;;;;;;;7.00;99.90;;;;;;4998998;28;20012;-77
2021/11/15 06:45:14;;;;;;;;;;;7.00;99.90;;;;;;5008649;28;19925;-77
2021/11/15 06:47:42;;;;;;;;;;;7.00;99.90;;;;;;5007695;28;20020;-77
2021/11/15 06:50:09;;;;;;;;;;;7.00;99.90;;;;;;5002456;28;19937;-76
2021/11/15 06:52:36;;;;;;;;;;;7.00;99.90;;;;;;5008483;28;20052;-77
2021/11/15 06:55:04;;;;;;;;;;;7.00;99.90;;;;;;5006691;28;20029;-75
2021/11/15 06:57:32;;;;;;;;;;;6.90;99.90;;;;;;5004166;28;19926;-76
2021/11/15 06:59:58;;;;;;;;;;;7.00;99.90;;;;;;4991453;28;19944;-75
2021/11/15 07:02:30;;;;;;;;;;;7.00;99.90;;;;;;5005350;28;19925;-75
2021/11/15 07:04:57;;;;;;;;;;;7.00;99.90;;;;;;5006155;28;19961;-75
2021/11/15 07:07:24;;;;;;;;;;;7.00;99.90;;;;;;5007772;28;19930;-74
2021/11/15 07:09:50;;;;;;;;;;;7.00;99.90;;;;;;5008086;28;20024;-75
2021/11/15 07:12:19;;;;;;;;;;;7.00;99.90;;;;;;5006856;28;19929;-75
2021/11/15 07:14:48;;;;;;;;;;;6.90;99.90;;;;;;5006132;28;19935;-76
2021/11/15 07:17:15;;;;;;;;;;;6.90;99.90;;;;;;5009897;28;19933;-75
2021/11/15 07:19:42;;;;;;;;;;;7.00;99.90;;;;;;5012063;28;19932;-75
2021/11/15 07:22:09;;;;;;;;;;;7.00;99.90;;;;;;5005936;28;19964;-75
2021/11/15 07:24:36;;;;;;;;;;;6.90;99.90;;;;;;5010683;28;19926;-75
2021/11/15 07:27:02;;;;;;;;;;;7.00;99.90;;;;;;5007568;28;19940;-75
2021/11/15 07:29:29;;;;;;;;;;;7.00;99.90;;;;;;5002138;28;19933;-75
2021/11/15 07:31:57;;;;;;;;;;;7.00;99.90;;;;;;4999469;28;19940;-78
2021/11/15 07:34:27;;;;;;;;;;;7.00;99.90;;;;;;4994289;28;19945;-74
2021/11/15 07:36:53;;;;;;;;;;;7.00;99.90;;;;;;5000955;28;20388;-76
2021/11/15 07:39:20;;;;;;;;;;;7.00;99.90;;;;;;5002186;28;19940;-73
2021/11/15 07:41:47;;;;;;;;;;;7.00;99.90;;;;;;5003046;28;19933;-74
2021/11/15 07:44:14;;;;;;;;;;;6.90;99.90;;;;;;5000162;28;20089;-73
2021/11/15 07:46:41;;;;;;;;;;;6.90;99.90;;;;;;5002175;28;20352;-74
2021/11/15 07:49:09;;;;;;;;;;;6.90;99.90;;;;;;5005428;28;19930;-73
2021/11/15 07:51:36;;;;;;;;;;;6.90;99.90;;;;;;5005848;28;19977;-73
2021/11/15 07:54:02;;;;;;;;;;;6.90;99.90;;;;;;5006615;28;19926;-76
2021/11/15 07:56:29;;;;;;;;;;;6.90;99.90;;;;;;5006101;28;19932;-73
2021/11/15 07:58:56;;;;;;;;;;;6.90;99.90;;;;;;5003422;28;19946;-74
2021/11/15 08:01:22;;;;;;;;;;;6.90;99.90;;;;;;5001335;28;20012;-74
2021/11/15 08:03:49;;;;;;;;;;;6.90;99.90;;;;;;5006449;28;19926;-74
2021/11/15 08:06:17;;;;;;;;;;;6.90;99.90;;;;;;5003627;28;19936;-73
2021/11/15 08:08:46;;;;;;;;;;;6.90;99.90;;;;;;5006691;28;20532;-73
2021/11/15 08:11:15;;;;;;;;;;;6.90;99.90;;;;;;5006606;28;19925;-73
2021/11/15 08:13:42;;;;;;;;;;;7.00;99.90;;;;;;4999624;28;20318;-72
2021/11/15 08:16:08;;;;;;;;;;;6.90;99.90;;;;;;5003334;28;19925;-79
2021/11/15 08:18:37;;;;;;;;;;;6.90;99.90;;;;;;4997768;28;19930;-75
2021/11/15 08:21:08;;;;;;;;;;;6.90;99.90;;;;;;5000788;28;20023;-74
2021/11/15 08:23:36;;;;;;;;;;;7.00;99.90;;;;;;5006876;28;19925;-74
2021/11/15 08:26:33;;;;;;;;;;;6.90;99.90;;;;;;5002540;28;19940;-73
2021/11/15 08:29:02;;;;;;;;;;;6.90;99.90;;;;;;4999918;28;19933;-72
2021/11/15 08:31:29;;;;;;;;;;;6.90;99.90;;;;;;5007022;28;19930;-73
2021/11/15 08:33:55;;;;;;;;;;;6.90;99.90;;;;;;5000997;28;19941;-72
2021/11/15 08:36:22;;;;;;;;;;;6.90;99.90;;;;;;5010873;28;19932;-73
2021/11/15 08:38:53;;;;;;;;;;;6.90;99.90;;;;;;5016143;28;19925;-75
2021/11/15 08:41:22;;;;;;;;;;;7.00;99.90;;;;;;5002315;28;20552;-74
2021/11/15 08:43:48;;;;;;;;;;;6.90;99.90;;;;;;5009973;28;19929;-74
2021/11/15 08:46:19;;;;;;;;;;;6.90;99.90;;;;;;5005615;28;19929;-74
2021/11/15 08:48:46;;;;;;;;;;;6.90;99.90;;;;;;5005409;28;19933;-74
2021/11/15 08:51:14;;;;;;;;;;;7.00;99.90;;;;;;5005461;28;20655;-75
2021/11/15 08:53:41;;;;;;;;;;;6.90;99.90;;;;;;5009667;28;19933;-75
2021/11/15 08:56:09;;;;;;;;;;;6.90;99.90;;;;;;5015154;28;20280;-72
2021/11/15 08:58:36;;;;;;;;;;;6.90;99.90;;;;;;5019333;28;19926;-75
2021/11/15 09:01:03;;;;;;;;;;;6.90;99.90;;;;;;5007237;28;20364;-75
2021/11/15 09:03:30;;;;;;;;;;;6.90;99.90;;;;;;5009264;28;19926;-75
2021/11/15 09:05:57;;;;;;;;;;;7.00;99.90;;;;;;4999671;28;20403;-78
2021/11/15 09:08:24;;;;;;;;;;;6.90;99.90;;;;;;5011237;28;19932;-77
2021/11/15 09:10:51;;;;;;;;;;;6.90;99.90;;;;;;5010008;28;19933;-77
2021/11/15 09:13:19;;;;;;;;;;;6.90;99.90;;;;;;5021766;28;19936;-75
2021/11/15 09:15:46;;;;;;;;;;;6.90;99.90;;;;;;5004940;28;20295;-75
2021/11/15 09:18:13;;;;;;;;;;;6.90;99.90;;;;;;5012350;28;19926;-75
2021/11/15 09:20:39;;;;;;;;;;;6.80;99.90;;;;;;5013569;28;20429;-76
2021/11/15 09:23:06;;;;;;;;;;;6.80;99.90;;;;;;5008669;28;20454;-75
2021/11/15 09:25:33;;;;;;;;;;;6.80;99.90;;;;;;5004033;28;20400;-75
2021/11/15 09:28:00;;;;;;;;;;;6.80;99.90;;;;;;5002891;28;19926;-76
2021/11/15 09:30:28;;;;;;;;;;;6.80;99.90;;;;;;5006289;28;19932;-76
2021/11/15 09:32:55;;;;;;;;;;;6.80;99.90;;;;;;5003464;28;19926;-75
2021/11/15 09:35:21;;;;;;;;;;;6.80;99.90;;;;;;5007659;28;19956;-75
2021/11/15 09:37:48;;;;;;;;;;;6.80;99.90;;;;;;5008003;28;19991;-75
2021/11/15 09:40:15;;;;;;;;;;;6.80;99.90;;;;;;5017376;28;19929;-75
2021/11/15 09:42:42;;;;;;;;;;;6.80;99.90;;;;;;5005337;28;19932;-74
2021/11/15 09:45:09;;;;;;;;;;;6.80;99.90;;;;;;5004564;28;19936;-75
2021/11/15 09:47:39;;;;;;;;;;;6.90;99.90;;;;;;5008307;28;19931;-75
2021/11/15 09:50:08;;;;;;;;;;;6.90;99.90;;;;;;5006570;28;20285;-76
2021/11/15 09:52:35;;;;;;;;;;;6.80;99.90;;;;;;4995873;28;19941;-74
2021/11/15 09:55:03;;;;;;;;;;;6.90;99.90;;;;;;4999270;28;19925;-74
2021/11/15 09:57:30;;;;;;;;;;;6.90;99.90;;;;;;4998978;28;19926;-76
2021/11/15 09:59:57;;;;;;;;;;;6.90;99.90;;;;;;5013564;28;20672;-74
2021/11/15 10:02:24;;;;;;;;;;;6.90;99.90;;;;;;5016792;28;19930;-75
2021/11/15 10:04:52;;;;;;;;;;;6.90;99.90;;;;;;5002492;28;19969;-77
2021/11/15 10:07:33;;;;;;;;;;;6.90;99.90;;;;;;5005720;28;19978;-75
2021/11/15 10:10:20;;;;;;;;;;;6.90;99.90;;;;;;5004548;28;19940;-75
2021/11/15 10:13:01;;;;;;;;;;;6.90;99.90;;;;;;5011213;28;19932;-74
2021/11/15 10:15:28;;;;;;;;;;;6.90;99.90;;;;;;5011233;28;19925;-75
2021/11/15 10:17:54;;;;;;;;;;;6.90;99.90;;;;;;5016795;28;19979;-75
2021/11/15 10:20:22;;;;;;;;;;;6.90;99.90;;;;;;5010754;28;20510;-75
2021/11/15 10:22:49;;;;;;;;;;;7.00;99.90;;;;;;5013518;28;20368;-74
2021/11/15 10:25:30;;;;;;;;;;;7.10;99.90;;;;;;5004348;28;20286;-75
2021/11/15 10:28:05;;;;;;;;;;;7.00;99.90;;;;;;5015162;28;19929;-75
2021/11/15 10:30:34;;;;;;;;;;;7.10;99.90;;;;;;5008455;28;19979;-76
2021/11/15 10:33:04;;;;;;;;;;;7.00;99.90;;;;;;5016121;28;19932;-74
2021/11/15 10:35:40;;;;;;;;;;;7.00;99.90;;;;;;5000805;28;20008;-76
2021/11/15 10:38:07;;;;;;;;;;;7.00;99.90;;;;;;5071252;28;20443;-73
2021/11/15 10:40:37;;;;;;;;;;;7.00;99.90;;;;;;5017883;28;19930;-73
2021/11/15 10:43:08;;;;;;;;;;;7.00;99.90;;;;;;5019484;28;20295;-73
2021/11/15 10:45:35;;;;;;;;;;;7.00;99.90;;;;;;5003527;28;19940;-74
2021/11/15 10:48:04;;;;;;;;;;;7.10;99.90;;;;;;5007743;28;19981;-73
2021/11/15 10:50:44;;;;;;;;;;;7.10;99.90;;;;;;5007139;28;19925;-75
2021/11/15 10:53:15;;;;;;;;;;;7.00;99.90;;;;;;5001445;28;20627;-79
2021/11/15 10:55:46;;;;;;;;;;;7.00;99.90;;;;;;5006750;28;19926;-75
2021/11/15 10:58:15;;;;;;;;;;;7.00;99.90;;;;;;5009823;28;19926;-75
2021/11/15 11:00:49;;;;;;;;;;;7.00;99.90;;;;;;5013865;28;20291;-73
2021/11/15 11:03:19;;;;;;;;;;;7.00;99.90;;;;;;5012651;28;19933;-74
2021/11/15 11:05:47;;;;;;;;;;;7.00;99.90;;;;;;5010727;28;20396;-74
2021/11/15 11:08:18;;;;;;;;;;;6.90;99.90;;;;;;5014866;28;19929;-77
2021/11/15 11:10:56;;;;;;;;;;;6.90;99.90;;;;;;5006703;28;20376;-76
2021/11/15 11:13:25;;;;;;;;;;;6.90;99.90;;;;;;5009527;28;19926;-77
2021/11/15 11:15:54;;;;;;;;;;;6.90;99.90;;;;;;5010869;28;20724;-78
2021/11/15 11:18:31;;;;;;;;;;;7.00;99.90;;;;;;5012067;28;19969;-79
2021/11/15 11:26:36;;;;;;;;;;;6.80;99.90;;;;;;5016906;28;19931;-77
2021/11/15 11:29:04;;;;;;;;;;;6.80;99.90;;;;;;5016721;28;19925;-74
2021/11/15 11:31:32;;;;;;;;;;;6.70;99.90;;;;;;5010951;28;19932;-77
2021/11/15 11:33:59;;;;;;;;;;;6.80;99.90;;;;;;5014773;28;20410;-77
2021/11/15 11:36:26;;;;;;;;;;;6.80;99.90;;;;;;5009127;28;19934;-77
2021/11/15 11:38:54;;;;;;;;;;;6.80;99.90;;;;;;5012530;28;19931;-76
2021/11/15 11:41:21;;;;;;;;;;;6.80;99.90;;;;;;5007871;28;19933;-75
2021/11/15 11:43:49;;;;;;;;;;;6.90;99.90;;;;;;4990499;28;21017;-76
2021/11/15 11:46:17;;;;;;;;;;;6.90;99.90;;;;;;5000203;28;19944;-76
2021/11/15 11:48:46;;;;;;;;;;;6.90;99.90;;;;;;5009669;28;20008;-77
2021/11/15 11:51:14;;;;;;;;;;;6.80;99.90;;;;;;5001707;28;19948;-76
2021/11/15 11:53:40;;;;;;;;;;;6.90;99.90;;;;;;5003393;28;20020;-75
2021/11/15 11:56:15;;;;;;;;;;;6.80;99.90;;;;;;5017754;28;19969;-75
2021/11/15 11:58:45;;;;;;;;;;;6.80;99.90;;;;;;5007847;28;20437;-75
2021/11/15 12:01:15;;;;;;;;;;;6.80;99.90;;;;;;5004366;28;19926;-75
2021/11/15 12:04:02;;;;;;;;;;;6.90;99.90;;;;;;5005751;28;19929;-75
2021/11/15 12:06:29;;;;;;;;;;;6.90;99.90;;;;;;5007822;28;20055;-75
2021/11/15 12:08:57;;;;;;;;;;;6.90;99.90;;;;;;5003298;28;19931;-76
2021/11/15 12:11:25;;;;;;;;;;;6.90;99.90;;;;;;5013899;28;19935;-75
2021/11/15 12:13:52;;;;;;;;;;;6.90;99.90;;;;;;5008933;28;20338;-75
2021/11/15 12:16:18;;;;;;;;;;;6.80;99.90;;;;;;5009436;28;19978;-75
2021/11/15 12:18:53;;;;;;;;;;;6.90;99.90;;;;;;4997942;28;20402;-75
2021/11/15 12:21:21;;;;;;;;;;;6.80;99.90;;;;;;5005007;28;19933;-74
2021/11/15 12:24:15;;;;;;;;;;;6.90;99.90;;;;;;4999982;28;19933;-75
2021/11/15 12:26:45;;;;;;;;;;;6.90;99.90;;;;;;5008198;28;20036;-74
2021/11/15 12:29:32;;;;;;;;;;;6.90;99.90;;;;;;5003679;28;19929;-75
2021/11/15 12:32:01;;;;;;;;;;;6.90;99.90;;;;;;4999804;28;19948;-75
2021/11/15 12:34:30;;;;;;;;;;;6.80;99.90;;;;;;5006207;28;20354;-76
2021/11/15 12:36:57;;;;;;;;;;;6.90;99.90;;;;;;5008479;28;19937;-75
2021/11/15 12:39:26;;;;;;;;;;;6.80;99.90;;;;;;5009606;28;19932;-76
2021/11/15 12:41:55;;;;;;;;;;;6.80;99.90;;;;;;5006474;28;19929;-74
2021/11/15 12:44:26;;;;;;;;;;;6.80;99.90;;;;;;5010475;28;19925;-75
2021/11/15 12:46:58;;;;;;;;;;;6.90;99.90;;;;;;5005265;28;20016;-74
2021/11/15 12:49:26;;;;;;;;;;;6.80;99.90;;;;;;5000548;28;19936;-74
2021/11/15 12:52:08;;;;;;;;;;;6.90;99.90;;;;;;5006013;28;20116;-74
2021/11/15 12:54:36;;;;;;;;;;;6.90;99.90;;;;;;5018809;28;19928;-75
2021/11/15 12:57:04;;;;;;;;;;;6.90;99.90;;;;;;5006481;28;20027;-74
2021/11/15 12:59:32;;;;;;;;;;;6.90;99.90;;;;;;5002038;28;19926;-74
2021/11/15 13:01:58;;;;;;;;;;;6.80;99.90;;;;;;5003872;28;20459;-75
2021/11/15 13:04:25;;;;;;;;;;;6.80;99.90;;;;;;5009464;28;19943;-75
2021/11/15 13:06:52;;;;;;;;;;;6.80;99.90;;;;;;5015793;28;19925;-73
2021/11/15 13:09:19;;;;;;;;;;;6.80;99.90;;;;;;5010392;28;20649;-74
2021/11/15 13:11:47;;;;;;;;;;;6.80;99.90;;;;;;5006412;28;19925;-73
2021/11/15 13:14:15;;;;;;;;;;;6.80;99.90;;;;;;5009468;28;19943;-76
2021/11/15 13:16:44;;;;;;;;;;;6.90;99.90;;;;;;5015008;28;19929;-75
2021/11/15 13:19:11;;;;;;;;;;;6.90;99.90;;;;;;5008029;28;19937;-77
2021/11/15 13:21:41;;;;;;;;;;;6.80;99.90;;;;;;5001952;28;19975;-76
2021/11/15 13:24:08;;;;;;;;;;;6.70;99.90;;;;;;4999215;28;19925;-74
2021/11/15 13:26:36;;;;;;;;;;;6.70;99.90;;;;;;5004462;28;20020;-74
2021/11/15 13:29:03;;;;;;;;;;;6.70;99.90;;;;;;5001789;28;19940;-74
2021/11/15 13:31:32;;;;;;;;;;;6.80;99.90;;;;;;4996348;28;20037;-73
2021/11/15 13:33:58;;;;;;;;;;;6.80;99.90;;;;;;5010500;28;19940;-73
2021/11/15 13:36:25;;;;;;;;;;;6.90;99.90;;;;;;5013038;28;19926;-74
2021/11/15 13:38:52;;;;;;;;;;;6.80;99.90;;;;;;5007468;28;19933;-74
2021/11/15 13:41:19;;;;;;;;;;;6.80;99.90;;;;;;5005102;28;19931;-76
2021/11/15 13:43:46;;;;;;;;;;;6.70;99.90;;;;;;5008135;28;20360;-76
2021/11/15 13:46:14;;;;;;;;;;;6.80;99.90;;;;;;5015046;28;19929;-75
2021/11/15 13:48:42;;;;;;;;;;;6.80;99.90;;;;;;5031235;28;19986;-75
2021/11/15 13:51:08;;;;;;;;;;;6.80;99.90;;;;;;5016980;28;19925;-77
2021/11/15 13:53:35;;;;;;;;;;;6.80;99.90;;;;;;5015914;28;20565;-75
2021/11/15 13:56:02;;;;;;;;;;;6.90;99.90;;;;;;5011941;28;20016;-74
2021/11/15 13:58:31;;;;;;;;;;;6.80;99.90;;;;;;5018898;28;19924;-74
2021/11/15 14:00:58;;;;;;;;;;;6.80;99.90;;;;;;5009185;28;19932;-75
2021/11/15 14:03:25;;;;;;;;;;;6.80;99.90;;;;;;5004318;28;19929;-75
2021/11/15 14:05:53;;;;;;;;;;;6.80;99.90;;;;;;5005552;28;19966;-74
2021/11/15 14:08:19;;;;;;;;;;;6.80;99.90;;;;;;5013183;28;19931;-75
2021/11/15 14:10:46;;;;;;;;;;;6.80;99.90;;;;;;5007356;28;19933;-75
2021/11/15 14:13:13;;;;;;;;;;;6.80;99.90;;;;;;5012632;28;19948;-73
2021/11/15 14:15:40;;;;;;;;;;;6.90;99.90;;;;;;5005407;28;19976;-73
2021/11/15 14:18:06;;;;;;;;;;;6.80;99.90;;;;;;5012234;28;20011;-76
2021/11/15 14:20:33;;;;;;;;;;;6.80;99.90;;;;;;5008388;28;20014;-75
2021/11/15 14:23:02;;;;;;;;;;;6.80;99.90;;;;;;5009137;28;20418;-75
2021/11/15 14:25:30;;;;;;;;;;;6.90;99.90;;;;;;5013332;28;19934;-73
2021/11/15 14:27:56;;;;;;;;;;;6.90;99.90;;;;;;5005654;28;20457;-74
2021/11/15 14:30:23;;;;;;;;;;;6.80;99.90;;;;;;5009106;28;20376;-73
2021/11/15 14:32:50;;;;;;;;;;;6.90;99.90;;;;;;5006650;28;20455;-74
2021/11/15 14:35:17;;;;;;;;;;;6.90;99.90;;;;;;5013442;28;20053;-75
2021/11/15 14:37:43;;;;;;;;;;;6.80;99.90;;;;;;5001794;28;19934;-75
2021/11/15 14:40:12;;;;;;;;;;;6.90;99.90;;;;;;5011024;28;19934;-75